Aérodrome :
LOGIN :

S'inscrire | Disclaimer

   EN    FR    IT 

 










Légende :    VFR   VFR Marginal   IFR   IFR Intensif   IFR Très Intensif
Visi : 
Plafond : 
>= 8 km
>= 3000ft
5 à 8 km
1000 à 3000 ft
1500m à 5 km
500 à 1000 ft
800 à 1500m
200 à 500 ft
< 800m
< 200 ft
Symboles :   Orages  Brouillard  Fortes neiges  Fortes précipitations  Vent > 20 kt
SIGMETs :   Divers  Orages  Givrage  Turbulence  Onde Orograph.  Cendres Volcan.







- Altitude de l'aérodrome : 137 ft


LIPS - Istrana AFB Treviso

DERNIER METAR :
  • 231055Z 10006KT 7000 SCT020 16/13 Q1017 RMK BKN SCT200 VIS MIN 7000 WIND THR26 07005KT WIND THR08 07007KT WHT

METARs EXPIRÉS :
  • 230955Z 08006KT 7000 SCT020 SCT100 16/13 Q1017 RMK BKN BKN200 VIS MIN 7000 WIND THR26 07005KT WIND THR08 09006KT WHT
  • 230855Z 10005KT 6000 SCT020 SCT080 15/12 Q1017 RMK BKN BKN180 VIS MIN 6000 WIND THR26 07003KT WIND THR08 08004KT WHT

TAF TAF LIPS
Valide du 23 à 12h jusqu'au 23 à 21h UTC


231100Z 2312/2321 VRB05KT 8000 SCT020 SCT080
PROB30
TEMPO 2313/2316 5000 RA OR SHRA BKN020
Pas de NOTAMs connus pour ce terrain.



MET'MAP, la Météo Aéronautique d'un coup d'oeil ! - Copyright ORBIFLY Décembre 2007 - Disclaimer

ORBIFLY MET'MAP TEAM :

Programmation & Développement : Alexandra Zaïnal
Conception & Développement : Baudouin d'Aumeries
Co-Programmation & Développement : Marc-Olivier Méhu
Soutien technique & logistique : Manuel Goepfert

Contact : metmap@orbifly.com




SOURCES & CREDITS :

   NOAA